Terminal Aerodrome Forecast
Issued by NWS

Home | Current Version | Previous Version | Text Only | Print | Product List | Glossary On
Versions: 1 2 3 4 5 6 7 8 9 10 11 12 13 14 15 16 17
000
FTUS43 KIND 301100
TAFLAF
TAF
KLAF 301120Z 3012/0112 25006KT 5SM BR VCSH SCT015 OVC030
     FM301400 26006KT P6SM BKN035
     FM301900 28008KT P6SM -SHRA BKN035
     FM302100 31007KT P6SM BKN080
     FM010300 02002KT 5SM BR SCT250
      AMD LTD TO CLD VIS AND WIND TIL 301300=

USA.gov is the U.S. government's official web portal to all federal, state and local government web resources and services.